sensor_id;sensor_type;location;lat;lon;timestamp;pressure;altitude;pressure_sealevel;temperature;humidity
25944;BME280;13742;49.306;8.636;2022-09-09T00:00:34;100043.95;;;18.33;71.20
25944;BME280;13742;49.306;8.636;2022-09-09T00:01:53;100045.97;;;18.33;71.03
25944;BME280;13742;49.306;8.636;2022-09-09T00:02:33;100047.61;;;18.31;71.54
25944;BME280;13742;49.306;8.636;2022-09-09T00:04:34;100047.25;;;18.32;71.58
25944;BME280;13742;49.306;8.636;2022-09-09T00:05:55;100048.93;;;18.32;71.31
25944;BME280;13742;49.306;8.636;2022-09-09T00:07:43;100053.30;;;18.34;71.96
25944;BME280;13742;49.306;8.636;2022-09-09T00:08:38;100053.45;;;18.34;71.61
25944;BME280;13742;49.306;8.636;2022-09-09T00:10:34;100050.09;;;18.31;71.93
25944;BME280;13742;49.306;8.636;2022-09-09T00:11:41;100047.41;;;18.31;71.77
25944;BME280;13742;49.306;8.636;2022-09-09T00:12:38;100048.59;;;18.32;72.02
25944;BME280;13742;49.306;8.636;2022-09-09T00:13:35;100043.30;;;18.31;72.11
25944;BME280;13742;49.306;8.636;2022-09-09T00:14:35;100040.96;;;18.31;72.29
25944;BME280;13742;49.306;8.636;2022-09-09T00:15:38;100040.75;;;18.31;71.93
25944;BME280;13742;49.306;8.636;2022-09-09T00:16:35;100038.58;;;18.31;71.70
25944;BME280;13742;49.306;8.636;2022-09-09T00:17:38;100036.16;;;18.29;71.89
25944;BME280;13742;49.306;8.636;2022-09-09T00:19:54;100035.19;;;18.25;72.06
25944;BME280;13742;49.306;8.636;2022-09-09T00:21:37;100031.38;;;18.24;71.98
25944;BME280;13742;49.306;8.636;2022-09-09T00:22:34;100029.95;;;18.23;71.97
25944;BME280;13742;49.306;8.636;2022-09-09T00:23:35;100028.05;;;18.23;72.07
25944;BME280;13742;49.306;8.636;2022-09-09T00:24:42;100034.14;;;18.23;72.09
25944;BME280;13742;49.306;8.636;2022-09-09T00:25:35;100036.55;;;18.21;71.96
25944;BME280;13742;49.306;8.636;2022-09-09T00:28:36;100027.53;;;18.21;72.41
25944;BME280;13742;49.306;8.636;2022-09-09T00:29:58;100035.98;;;18.21;72.21
25944;BME280;13742;49.306;8.636;2022-09-09T00:30:33;100031.39;;;18.19;72.07
25944;BME280;13742;49.306;8.636;2022-09-09T00:31:34;100032.75;;;18.17;72.41
25944;BME280;13742;49.306;8.636;2022-09-09T00:32:35;100030.09;;;18.16;72.20
25944;BME280;13742;49.306;8.636;2022-09-09T00:33:33;100030.44;;;18.14;72.21
25944;BME280;13742;49.306;8.636;2022-09-09T00:34:33;100028.16;;;18.14;72.15
25944;BME280;13742;49.306;8.636;2022-09-09T00:35:34;100028.33;;;18.14;72.25
25944;BME280;13742;49.306;8.636;2022-09-09T00:36:35;100028.66;;;18.14;72.34
25944;BME280;13742;49.306;8.636;2022-09-09T00:37:35;100029.44;;;18.14;72.56
25944;BME280;13742;49.306;8.636;2022-09-09T00:38:37;100026.66;;;18.14;72.39
25944;BME280;13742;49.306;8.636;2022-09-09T00:39:34;100029.38;;;18.15;72.47
25944;BME280;13742;49.306;8.636;2022-09-09T00:40:35;100026.63;;;18.17;73.03
25944;BME280;13742;49.306;8.636;2022-09-09T00:41:40;100030.95;;;18.18;73.05
25944;BME280;13742;49.306;8.636;2022-09-09T00:43:37;100029.72;;;18.19;72.49
25944;BME280;13742;49.306;8.636;2022-09-09T00:44:37;100031.27;;;18.20;72.31
25944;BME280;13742;49.306;8.636;2022-09-09T00:46:39;100030.97;;;18.17;72.67
25944;BME280;13742;49.306;8.636;2022-09-09T00:47:38;100032.28;;;18.18;72.68
25944;BME280;13742;49.306;8.636;2022-09-09T00:53:58;100043.38;;;18.18;72.86
25944;BME280;13742;49.306;8.636;2022-09-09T00:55:38;100044.72;;;18.18;73.28
25944;BME280;13742;49.306;8.636;2022-09-09T00:56:36;100042.48;;;18.19;73.37
25944;BME280;13742;49.306;8.636;2022-09-09T00:57:34;100040.20;;;18.18;73.04
25944;BME280;13742;49.306;8.636;2022-09-09T00:58:33;100034.94;;;18.16;73.25
25944;BME280;13742;49.306;8.636;2022-09-09T01:00:56;100037.13;;;18.14;73.94
25944;BME280;13742;49.306;8.636;2022-09-09T01:01:35;100040.01;;;18.15;73.55
25944;BME280;13742;49.306;8.636;2022-09-09T01:02:39;100038.23;;;18.15;73.54
25944;BME280;13742;49.306;8.636;2022-09-09T01:04:34;100040.89;;;18.16;73.33
25944;BME280;13742;49.306;8.636;2022-09-09T01:06:34;100046.34;;;18.17;72.81
25944;BME280;13742;49.306;8.636;2022-09-09T01:07:34;100051.56;;;18.18;72.70
25944;BME280;13742;49.306;8.636;2022-09-09T01:09:38;100051.23;;;18.18;73.14
25944;BME280;13742;49.306;8.636;2022-09-09T01:12:42;100050.75;;;18.16;73.17
25944;BME280;13742;49.306;8.636;2022-09-09T01:13:34;100048.34;;;18.17;73.17
25944;BME280;13742;49.306;8.636;2022-09-09T01:15:33;100047.41;;;18.16;73.10
25944;BME280;13742;49.306;8.636;2022-09-09T01:16:34;100046.18;;;18.17;73.88
25944;BME280;13742;49.306;8.636;2022-09-09T01:17:36;100042.16;;;18.17;73.78
25944;BME280;13742;49.306;8.636;2022-09-09T01:18:40;100042.17;;;18.17;73.79
25944;BME280;13742;49.306;8.636;2022-09-09T01:19:40;100041.16;;;18.17;74.04
25944;BME280;13742;49.306;8.636;2022-09-09T01:22:46;100033.30;;;18.19;73.81
25944;BME280;13742;49.306;8.636;2022-09-09T01:23:38;100037.14;;;18.19;73.57
25944;BME280;13742;49.306;8.636;2022-09-09T01:26:34;100038.23;;;18.21;73.59
25944;BME280;13742;49.306;8.636;2022-09-09T01:27:33;100036.70;;;18.22;74.86
25944;BME280;13742;49.306;8.636;2022-09-09T01:28:35;100037.78;;;18.02;75.75
25944;BME280;13742;49.306;8.636;2022-09-09T01:29:33;100033.66;;;18.11;75.39
25944;BME280;13742;49.306;8.636;2022-09-09T01:30:37;100031.72;;;18.15;75.09
25944;BME280;13742;49.306;8.636;2022-09-09T01:31:41;100033.77;;;18.16;74.57
25944;BME280;13742;49.306;8.636;2022-09-09T01:33:33;100036.52;;;18.20;74.97
25944;BME280;13742;49.306;8.636;2022-09-09T01:34:35;100033.08;;;18.21;74.77
25944;BME280;13742;49.306;8.636;2022-09-09T01:37:33;100037.16;;;18.24;74.96
25944;BME280;13742;49.306;8.636;2022-09-09T01:38:33;100037.77;;;18.24;74.56
25944;BME280;13742;49.306;8.636;2022-09-09T01:39:34;100041.21;;;18.26;74.83
25944;BME280;13742;49.306;8.636;2022-09-09T01:40:33;100043.72;;;18.25;74.69
25944;BME280;13742;49.306;8.636;2022-09-09T01:41:33;100046.28;;;18.25;74.61
25944;BME280;13742;49.306;8.636;2022-09-09T01:42:33;100055.05;;;18.25;74.56
25944;BME280;13742;49.306;8.636;2022-09-09T01:43:33;100055.52;;;18.25;74.49
25944;BME280;13742;49.306;8.636;2022-09-09T01:44:33;100051.64;;;18.25;75.00
25944;BME280;13742;49.306;8.636;2022-09-09T01:45:33;100052.47;;;18.24;74.62
25944;BME280;13742;49.306;8.636;2022-09-09T01:46:33;100055.20;;;18.24;74.53
25944;BME280;13742;49.306;8.636;2022-09-09T01:47:34;100053.03;;;18.24;74.32
25944;BME280;13742;49.306;8.636;2022-09-09T01:48:33;100052.05;;;18.23;74.45
25944;BME280;13742;49.306;8.636;2022-09-09T01:49:33;100049.75;;;18.24;75.10
25944;BME280;13742;49.306;8.636;2022-09-09T01:50:33;100052.58;;;18.22;75.18
25944;BME280;13742;49.306;8.636;2022-09-09T01:51:34;100048.80;;;18.21;75.44
25944;BME280;13742;49.306;8.636;2022-09-09T01:52:33;100054.56;;;18.20;75.09
25944;BME280;13742;49.306;8.636;2022-09-09T01:53:33;100053.39;;;18.19;75.08
25944;BME280;13742;49.306;8.636;2022-09-09T01:54:33;100056.06;;;18.20;75.11
25944;BME280;13742;49.306;8.636;2022-09-09T01:55:44;100055.16;;;18.20;75.05
25944;BME280;13742;49.306;8.636;2022-09-09T01:56:35;100055.79;;;18.19;75.29
25944;BME280;13742;49.306;8.636;2022-09-09T01:57:39;100058.13;;;18.19;75.47
25944;BME280;13742;49.306;8.636;2022-09-09T01:58:37;100058.41;;;18.19;75.13
25944;BME280;13742;49.306;8.636;2022-09-09T01:59:38;100054.24;;;18.18;75.42
25944;BME280;13742;49.306;8.636;2022-09-09T02:00:33;100055.41;;;18.18;75.52
25944;BME280;13742;49.306;8.636;2022-09-09T02:01:40;100049.93;;;18.15;75.75
25944;BME280;13742;49.306;8.636;2022-09-09T02:03:33;100043.91;;;18.15;75.59
25944;BME280;13742;49.306;8.636;2022-09-09T02:04:41;100050.42;;;18.16;75.08
25944;BME280;13742;49.306;8.636;2022-09-09T02:06:34;100044.23;;;18.16;75.02
25944;BME280;13742;49.306;8.636;2022-09-09T02:09:33;100043.84;;;18.17;75.97
25944;BME280;13742;49.306;8.636;2022-09-09T02:11:34;100040.10;;;18.18;75.62
25944;BME280;13742;49.306;8.636;2022-09-09T02:12:33;100042.88;;;18.18;75.42
25944;BME280;13742;49.306;8.636;2022-09-09T02:13:35;100044.45;;;18.18;75.79
25944;BME280;13742;49.306;8.636;2022-09-09T02:14:35;100041.56;;;18.17;75.86
25944;BME280;13742;49.306;8.636;2022-09-09T02:17:34;100040.17;;;18.15;76.18
25944;BME280;13742;49.306;8.636;2022-09-09T02:19:35;100037.91;;;18.15;76.20
25944;BME280;13742;49.306;8.636;2022-09-09T02:20:34;100040.41;;;18.15;76.60
25944;BME280;13742;49.306;8.636;2022-09-09T02:21:35;100032.95;;;18.14;76.42
25944;BME280;13742;49.306;8.636;2022-09-09T02:22:34;100036.11;;;18.16;76.55
25944;BME280;13742;49.306;8.636;2022-09-09T02:23:33;100038.84;;;18.15;76.37
25944;BME280;13742;49.306;8.636;2022-09-09T02:24:34;100042.75;;;18.15;76.09
25944;BME280;13742;49.306;8.636;2022-09-09T02:25:33;100041.20;;;18.14;76.71
25944;BME280;13742;49.306;8.636;2022-09-09T02:26:34;100040.77;;;18.13;76.56
25944;BME280;13742;49.306;8.636;2022-09-09T02:27:33;100043.53;;;18.14;76.23
25944;BME280;13742;49.306;8.636;2022-09-09T02:28:33;100041.39;;;18.12;76.50
25944;BME280;13742;49.306;8.636;2022-09-09T02:29:34;100046.00;;;18.13;76.26
25944;BME280;13742;49.306;8.636;2022-09-09T02:30:34;100043.89;;;18.12;76.28
25944;BME280;13742;49.306;8.636;2022-09-09T02:31:35;100045.75;;;18.11;76.59
25944;BME280;13742;49.306;8.636;2022-09-09T02:32:34;100046.27;;;18.09;76.78
25944;BME280;13742;49.306;8.636;2022-09-09T02:33:36;100045.47;;;18.10;77.11
25944;BME280;13742;49.306;8.636;2022-09-09T02:34:34;100048.15;;;18.10;76.69
25944;BME280;13742;49.306;8.636;2022-09-09T02:35:33;100046.00;;;18.09;77.16
25944;BME280;13742;49.306;8.636;2022-09-09T02:36:33;100046.04;;;18.10;77.18
25944;BME280;13742;49.306;8.636;2022-09-09T02:37:36;100045.02;;;18.07;76.71
25944;BME280;13742;49.306;8.636;2022-09-09T02:38:35;100044.18;;;18.07;76.85
25944;BME280;13742;49.306;8.636;2022-09-09T02:39:33;100042.66;;;18.09;77.09
25944;BME280;13742;49.306;8.636;2022-09-09T02:40:33;100041.88;;;18.08;77.27
25944;BME280;13742;49.306;8.636;2022-09-09T02:41:34;100046.13;;;18.08;77.02
25944;BME280;13742;49.306;8.636;2022-09-09T02:43:34;100043.41;;;18.07;77.56
25944;BME280;13742;49.306;8.636;2022-09-09T02:44:33;100043.92;;;18.05;77.76
25944;BME280;13742;49.306;8.636;2022-09-09T02:45:58;100046.03;;;18.06;77.37
25944;BME280;13742;49.306;8.636;2022-09-09T02:47:36;100046.32;;;18.04;77.32
25944;BME280;13742;49.306;8.636;2022-09-09T02:50:39;100047.47;;;18.02;77.75
25944;BME280;13742;49.306;8.636;2022-09-09T02:53:39;100049.75;;;18.03;77.70
25944;BME280;13742;49.306;8.636;2022-09-09T02:54:34;100047.59;;;18.01;78.00
25944;BME280;13742;49.306;8.636;2022-09-09T02:56:34;100043.02;;;18.01;78.55
25944;BME280;13742;49.306;8.636;2022-09-09T02:57:33;100040.55;;;17.99;77.74
25944;BME280;13742;49.306;8.636;2022-09-09T02:58:33;100032.28;;;17.95;77.66
25944;BME280;13742;49.306;8.636;2022-09-09T02:59:33;100033.94;;;17.96;77.84
25944;BME280;13742;49.306;8.636;2022-09-09T03:00:35;100027.92;;;17.96;77.40
25944;BME280;13742;49.306;8.636;2022-09-09T03:01:35;100029.62;;;17.95;77.83
25944;BME280;13742;49.306;8.636;2022-09-09T03:02:33;100028.90;;;17.94;77.19
25944;BME280;13742;49.306;8.636;2022-09-09T03:03:33;100030.47;;;17.93;77.00
25944;BME280;13742;49.306;8.636;2022-09-09T03:04:33;100027.53;;;17.91;77.26
25944;BME280;13742;49.306;8.636;2022-09-09T03:05:33;100031.83;;;17.92;77.05
25944;BME280;13742;49.306;8.636;2022-09-09T03:06:33;100031.55;;;17.91;77.39
25944;BME280;13742;49.306;8.636;2022-09-09T03:07:33;100030.13;;;17.89;77.06
25944;BME280;13742;49.306;8.636;2022-09-09T03:08:33;100033.86;;;17.89;76.96
25944;BME280;13742;49.306;8.636;2022-09-09T03:09:33;100034.46;;;17.89;77.47
25944;BME280;13742;49.306;8.636;2022-09-09T03:10:34;100034.87;;;17.89;77.35
25944;BME280;13742;49.306;8.636;2022-09-09T03:11:33;100034.68;;;17.90;77.50
25944;BME280;13742;49.306;8.636;2022-09-09T03:12:33;100030.00;;;17.90;77.62
25944;BME280;13742;49.306;8.636;2022-09-09T03:13:33;100027.55;;;17.90;77.36
25944;BME280;13742;49.306;8.636;2022-09-09T03:14:33;100029.34;;;17.90;77.32
25944;BME280;13742;49.306;8.636;2022-09-09T03:15:34;100031.67;;;17.90;77.27
25944;BME280;13742;49.306;8.636;2022-09-09T03:16:34;100031.50;;;17.90;77.63
25944;BME280;13742;49.306;8.636;2022-09-09T03:17:34;100033.55;;;17.91;77.62
25944;BME280;13742;49.306;8.636;2022-09-09T03:18:34;100031.44;;;17.91;77.23
25944;BME280;13742;49.306;8.636;2022-09-09T03:19:35;100026.05;;;17.90;77.35
25944;BME280;13742;49.306;8.636;2022-09-09T03:20:33;100026.03;;;17.91;77.77
25944;BME280;13742;49.306;8.636;2022-09-09T03:21:33;100022.76;;;17.91;77.63
25944;BME280;13742;49.306;8.636;2022-09-09T03:22:34;100025.94;;;17.91;77.27
25944;BME280;13742;49.306;8.636;2022-09-09T03:23:33;100020.58;;;17.91;77.78
25944;BME280;13742;49.306;8.636;2022-09-09T03:24:33;100023.14;;;17.90;77.28
25944;BME280;13742;49.306;8.636;2022-09-09T03:25:33;100025.44;;;17.91;77.29
25944;BME280;13742;49.306;8.636;2022-09-09T03:26:33;100027.33;;;17.90;76.94
25944;BME280;13742;49.306;8.636;2022-09-09T03:27:33;100030.89;;;17.90;76.97
25944;BME280;13742;49.306;8.636;2022-09-09T03:28:33;100032.29;;;17.89;76.78
25944;BME280;13742;49.306;8.636;2022-09-09T03:29:34;100031.91;;;17.88;77.04
25944;BME280;13742;49.306;8.636;2022-09-09T03:30:33;100034.05;;;17.87;76.92
25944;BME280;13742;49.306;8.636;2022-09-09T03:31:33;100033.70;;;17.87;76.73
25944;BME280;13742;49.306;8.636;2022-09-09T03:32:33;100034.88;;;17.87;77.17
25944;BME280;13742;49.306;8.636;2022-09-09T03:33:36;100038.03;;;17.85;76.97
25944;BME280;13742;49.306;8.636;2022-09-09T03:34:33;100038.80;;;17.85;77.16
25944;BME280;13742;49.306;8.636;2022-09-09T03:35:33;100036.95;;;17.85;77.10
25944;BME280;13742;49.306;8.636;2022-09-09T03:36:33;100030.06;;;17.84;77.16
25944;BME280;13742;49.306;8.636;2022-09-09T03:37:33;100028.52;;;17.83;77.37
25944;BME280;13742;49.306;8.636;2022-09-09T03:38:33;100032.53;;;17.83;77.23
25944;BME280;13742;49.306;8.636;2022-09-09T03:39:33;100036.33;;;17.82;77.17
25944;BME280;13742;49.306;8.636;2022-09-09T03:40:33;100034.33;;;17.82;76.80
25944;BME280;13742;49.306;8.636;2022-09-09T03:41:34;100034.78;;;17.81;77.07
25944;BME280;13742;49.306;8.636;2022-09-09T03:42:33;100029.25;;;17.82;77.92
25944;BME280;13742;49.306;8.636;2022-09-09T03:43:33;100027.23;;;17.84;78.01
25944;BME280;13742;49.306;8.636;2022-09-09T03:44:33;100028.69;;;17.83;77.35
25944;BME280;13742;49.306;8.636;2022-09-09T03:45:33;100029.75;;;17.82;77.24
25944;BME280;13742;49.306;8.636;2022-09-09T03:46:33;100028.64;;;17.82;77.25
25944;BME280;13742;49.306;8.636;2022-09-09T03:47:33;100033.88;;;17.82;76.96
25944;BME280;13742;49.306;8.636;2022-09-09T03:48:33;100031.38;;;17.81;76.82
25944;BME280;13742;49.306;8.636;2022-09-09T03:49:33;100030.73;;;17.80;77.16
25944;BME280;13742;49.306;8.636;2022-09-09T03:50:33;100036.02;;;17.81;77.30
25944;BME280;13742;49.306;8.636;2022-09-09T03:51:36;100034.16;;;17.82;77.89
25944;BME280;13742;49.306;8.636;2022-09-09T03:52:37;100029.43;;;17.81;77.76
25944;BME280;13742;49.306;8.636;2022-09-09T03:53:34;100029.77;;;17.81;78.17
25944;BME280;13742;49.306;8.636;2022-09-09T03:54:34;100029.09;;;17.81;77.71
25944;BME280;13742;49.306;8.636;2022-09-09T03:55:33;100027.53;;;17.81;77.49
25944;BME280;13742;49.306;8.636;2022-09-09T03:56:34;100032.11;;;17.81;77.74
25944;BME280;13742;49.306;8.636;2022-09-09T03:57:35;100032.66;;;17.82;77.97
25944;BME280;13742;49.306;8.636;2022-09-09T03:58:34;100032.36;;;17.83;77.63
25944;BME280;13742;49.306;8.636;2022-09-09T03:59:34;100029.64;;;17.82;77.35
25944;BME280;13742;49.306;8.636;2022-09-09T04:00:33;100033.49;;;17.82;77.24
25944;BME280;13742;49.306;8.636;2022-09-09T04:01:33;100029.58;;;17.82;77.55
25944;BME280;13742;49.306;8.636;2022-09-09T04:02:33;100031.70;;;17.83;77.89
25944;BME280;13742;49.306;8.636;2022-09-09T04:03:33;100032.36;;;17.83;77.60
25944;BME280;13742;49.306;8.636;2022-09-09T04:04:33;100031.24;;;17.84;78.35
25944;BME280;13742;49.306;8.636;2022-09-09T04:05:34;100035.16;;;17.86;78.11
25944;BME280;13742;49.306;8.636;2022-09-09T04:06:34;100034.16;;;17.86;77.73
25944;BME280;13742;49.306;8.636;2022-09-09T04:07:33;100037.50;;;17.86;77.72
25944;BME280;13742;49.306;8.636;2022-09-09T04:08:33;100036.43;;;17.88;78.27
25944;BME280;13742;49.306;8.636;2022-09-09T04:09:33;100034.82;;;17.88;78.71
25944;BME280;13742;49.306;8.636;2022-09-09T04:10:33;100037.97;;;17.89;78.57
25944;BME280;13742;49.306;8.636;2022-09-09T04:11:33;100036.86;;;17.89;78.21
25944;BME280;13742;49.306;8.636;2022-09-09T04:12:34;100034.76;;;17.88;78.09
25944;BME280;13742;49.306;8.636;2022-09-09T04:13:34;100040.09;;;17.88;77.97
25944;BME280;13742;49.306;8.636;2022-09-09T04:14:33;100038.33;;;17.88;78.51
25944;BME280;13742;49.306;8.636;2022-09-09T04:15:34;100041.89;;;17.87;78.15
25944;BME280;13742;49.306;8.636;2022-09-09T04:16:34;100041.77;;;17.88;78.15
25944;BME280;13742;49.306;8.636;2022-09-09T04:17:33;100041.73;;;17.87;77.77
25944;BME280;13742;49.306;8.636;2022-09-09T04:18:34;100038.79;;;17.87;78.61
25944;BME280;13742;49.306;8.636;2022-09-09T04:19:33;100043.67;;;17.88;78.43
25944;BME280;13742;49.306;8.636;2022-09-09T04:20:33;100044.77;;;17.88;78.25
25944;BME280;13742;49.306;8.636;2022-09-09T04:21:33;100041.69;;;17.86;78.04
25944;BME280;13742;49.306;8.636;2022-09-09T04:22:34;100049.53;;;17.86;77.95
25944;BME280;13742;49.306;8.636;2022-09-09T04:23:34;100051.27;;;17.86;77.82
25944;BME280;13742;49.306;8.636;2022-09-09T04:24:33;100051.53;;;17.86;78.02
25944;BME280;13742;49.306;8.636;2022-09-09T04:25:34;100049.38;;;17.86;78.41
25944;BME280;13742;49.306;8.636;2022-09-09T04:26:34;100052.75;;;17.87;77.94
25944;BME280;13742;49.306;8.636;2022-09-09T04:27:33;100052.81;;;17.87;77.92
25944;BME280;13742;49.306;8.636;2022-09-09T04:28:34;100054.59;;;17.87;78.14
25944;BME280;13742;49.306;8.636;2022-09-09T04:29:33;100055.16;;;17.87;78.25
25944;BME280;13742;49.306;8.636;2022-09-09T04:30:34;100053.58;;;17.87;78.17
25944;BME280;13742;49.306;8.636;2022-09-09T04:31:33;100058.39;;;17.86;77.61
25944;BME280;13742;49.306;8.636;2022-09-09T04:32:33;100057.22;;;17.86;78.29
25944;BME280;13742;49.306;8.636;2022-09-09T04:33:33;100058.72;;;17.86;78.17
25944;BME280;13742;49.306;8.636;2022-09-09T04:34:33;100057.72;;;17.86;78.50
25944;BME280;13742;49.306;8.636;2022-09-09T04:35:33;100058.00;;;17.87;78.35
25944;BME280;13742;49.306;8.636;2022-09-09T04:36:34;100057.55;;;17.86;78.03
25944;BME280;13742;49.306;8.636;2022-09-09T04:37:33;100056.91;;;17.85;77.86
25944;BME280;13742;49.306;8.636;2022-09-09T04:38:33;100058.73;;;17.85;77.92
25944;BME280;13742;49.306;8.636;2022-09-09T04:39:33;100059.91;;;17.84;77.81
25944;BME280;13742;49.306;8.636;2022-09-09T04:40:33;100058.75;;;17.83;77.64
25944;BME280;13742;49.306;8.636;2022-09-09T04:41:37;100058.69;;;17.84;77.97
25944;BME280;13742;49.306;8.636;2022-09-09T04:42:36;100061.22;;;17.82;77.66
25944;BME280;13742;49.306;8.636;2022-09-09T04:43:34;100059.98;;;17.83;77.64
25944;BME280;13742;49.306;8.636;2022-09-09T04:44:33;100060.27;;;17.81;77.47
25944;BME280;13742;49.306;8.636;2022-09-09T04:45:33;100061.56;;;17.80;77.72
25944;BME280;13742;49.306;8.636;2022-09-09T04:46:34;100061.90;;;17.81;78.06
25944;BME280;13742;49.306;8.636;2022-09-09T04:47:35;100063.41;;;17.81;77.97
25944;BME280;13742;49.306;8.636;2022-09-09T04:48:33;100065.80;;;17.80;77.51
25944;BME280;13742;49.306;8.636;2022-09-09T04:49:33;100066.13;;;17.82;78.16
25944;BME280;13742;49.306;8.636;2022-09-09T04:50:33;100067.64;;;17.80;78.07
25944;BME280;13742;49.306;8.636;2022-09-09T04:51:33;100071.48;;;17.80;77.65
25944;BME280;13742;49.306;8.636;2022-09-09T04:52:36;100073.32;;;17.80;77.63
25944;BME280;13742;49.306;8.636;2022-09-09T04:53:37;100077.27;;;17.81;78.23
25944;BME280;13742;49.306;8.636;2022-09-09T04:54:33;100076.64;;;17.82;77.87
25944;BME280;13742;49.306;8.636;2022-09-09T04:55:34;100076.13;;;17.83;78.15
25944;BME280;13742;49.306;8.636;2022-09-09T04:56:33;100072.52;;;17.83;78.46
25944;BME280;13742;49.306;8.636;2022-09-09T04:57:34;100071.60;;;17.79;77.79
25944;BME280;13742;49.306;8.636;2022-09-09T04:58:33;100069.94;;;17.79;78.18
25944;BME280;13742;49.306;8.636;2022-09-09T04:59:33;100069.27;;;17.79;77.60
25944;BME280;13742;49.306;8.636;2022-09-09T05:00:34;100067.98;;;17.78;77.83
25944;BME280;13742;49.306;8.636;2022-09-09T05:01:34;100068.55;;;17.78;77.89
25944;BME280;13742;49.306;8.636;2022-09-09T05:02:36;100073.73;;;17.78;77.99
25944;BME280;13742;49.306;8.636;2022-09-09T05:03:33;100071.23;;;17.78;78.35
25944;BME280;13742;49.306;8.636;2022-09-09T05:04:33;100071.77;;;17.79;78.35
25944;BME280;13742;49.306;8.636;2022-09-09T05:05:36;100069.03;;;17.80;78.45
25944;BME280;13742;49.306;8.636;2022-09-09T05:06:34;100069.30;;;17.80;78.45
25944;BME280;13742;49.306;8.636;2022-09-09T05:07:33;100069.52;;;17.81;78.70
25944;BME280;13742;49.306;8.636;2022-09-09T05:08:34;100070.63;;;17.82;78.38
25944;BME280;13742;49.306;8.636;2022-09-09T05:09:33;100070.29;;;17.81;78.10
25944;BME280;13742;49.306;8.636;2022-09-09T05:10:33;100069.41;;;17.82;77.98
25944;BME280;13742;49.306;8.636;2022-09-09T05:11:36;100070.40;;;17.82;78.08
25944;BME280;13742;49.306;8.636;2022-09-09T05:12:33;100068.36;;;17.81;78.10
25944;BME280;13742;49.306;8.636;2022-09-09T05:13:33;100073.84;;;17.83;78.32
25944;BME280;13742;49.306;8.636;2022-09-09T05:14:33;100068.36;;;17.81;77.83
25944;BME280;13742;49.306;8.636;2022-09-09T05:15:33;100071.63;;;17.82;78.03
25944;BME280;13742;49.306;8.636;2022-09-09T05:16:34;100073.20;;;17.81;78.60
25944;BME280;13742;49.306;8.636;2022-09-09T05:17:33;100075.25;;;17.82;78.48
25944;BME280;13742;49.306;8.636;2022-09-09T05:18:33;100073.47;;;17.82;77.99
25944;BME280;13742;49.306;8.636;2022-09-09T05:19:33;100076.25;;;17.82;77.92
25944;BME280;13742;49.306;8.636;2022-09-09T05:20:33;100079.78;;;17.79;77.74
25944;BME280;13742;49.306;8.636;2022-09-09T05:21:33;100083.96;;;17.79;78.06
25944;BME280;13742;49.306;8.636;2022-09-09T05:22:33;100083.09;;;17.77;78.14
25944;BME280;13742;49.306;8.636;2022-09-09T05:23:34;100087.48;;;17.77;77.94
25944;BME280;13742;49.306;8.636;2022-09-09T05:24:33;100088.38;;;17.77;78.91
25944;BME280;13742;49.306;8.636;2022-09-09T05:25:33;100089.22;;;17.77;78.35
25944;BME280;13742;49.306;8.636;2022-09-09T05:26:33;100094.70;;;17.78;78.92
25944;BME280;13742;49.306;8.636;2022-09-09T05:27:33;100097.33;;;17.77;78.47
25944;BME280;13742;49.306;8.636;2022-09-09T05:28:33;100093.39;;;17.77;78.15
25944;BME280;13742;49.306;8.636;2022-09-09T05:29:33;100090.91;;;17.76;78.44
25944;BME280;13742;49.306;8.636;2022-09-09T05:30:33;100096.17;;;17.78;78.25
25944;BME280;13742;49.306;8.636;2022-09-09T05:31:33;100099.33;;;17.79;78.69
25944;BME280;13742;49.306;8.636;2022-09-09T05:32:34;100098.50;;;17.79;78.82
25944;BME280;13742;49.306;8.636;2022-09-09T05:33:35;100099.72;;;17.79;78.94
25944;BME280;13742;49.306;8.636;2022-09-09T05:34:33;100101.69;;;17.78;78.57
25944;BME280;13742;49.306;8.636;2022-09-09T05:35:33;100097.64;;;17.74;78.13
25944;BME280;13742;49.306;8.636;2022-09-09T05:36:33;100095.58;;;17.76;78.39
25944;BME280;13742;49.306;8.636;2022-09-09T05:37:33;100094.64;;;17.75;77.93
25944;BME280;13742;49.306;8.636;2022-09-09T05:38:33;100094.75;;;17.73;77.92
25944;BME280;13742;49.306;8.636;2022-09-09T05:39:34;100096.15;;;17.73;78.00
25944;BME280;13742;49.306;8.636;2022-09-09T05:40:33;100092.81;;;17.73;78.18
25944;BME280;13742;49.306;8.636;2022-09-09T05:41:34;100092.98;;;17.71;78.24
25944;BME280;13742;49.306;8.636;2022-09-09T05:42:33;100092.67;;;17.71;78.11
25944;BME280;13742;49.306;8.636;2022-09-09T05:43:35;100095.88;;;17.67;77.98
25944;BME280;13742;49.306;8.636;2022-09-09T05:44:33;100096.59;;;17.66;78.08
25944;BME280;13742;49.306;8.636;2022-09-09T05:45:33;100098.05;;;17.67;78.10
25944;BME280;13742;49.306;8.636;2022-09-09T05:46:33;100100.36;;;17.65;78.06
25944;BME280;13742;49.306;8.636;2022-09-09T05:47:33;100102.48;;;17.64;78.04
25944;BME280;13742;49.306;8.636;2022-09-09T05:48:35;100103.97;;;17.58;78.25
25944;BME280;13742;49.306;8.636;2022-09-09T05:49:33;100099.88;;;17.62;78.33
25944;BME280;13742;49.306;8.636;2022-09-09T05:50:33;100102.28;;;17.61;78.32
25944;BME280;13742;49.306;8.636;2022-09-09T05:51:33;100102.61;;;17.61;78.08
25944;BME280;13742;49.306;8.636;2022-09-09T05:52:33;100105.06;;;17.60;78.26
25944;BME280;13742;49.306;8.636;2022-09-09T05:53:36;100101.55;;;17.62;77.99
25944;BME280;13742;49.306;8.636;2022-09-09T05:54:33;100105.37;;;17.63;77.95
25944;BME280;13742;49.306;8.636;2022-09-09T05:55:33;100103.55;;;17.61;77.69
25944;BME280;13742;49.306;8.636;2022-09-09T05:56:33;100100.99;;;17.60;78.27
25944;BME280;13742;49.306;8.636;2022-09-09T05:57:34;100106.00;;;17.62;78.03